Bookmark and Share
Track history (hours):
 

Nassauborg

Ship's website: http://www.wagenborg.com/index.cfm?pid=37&itemid=158&contentitemid=236

Last reported at 2014-Apr-14 11:33 UTC. Time now 2014-Apr-18 02:59 UTC.
Position N 46°27' W 072°16'.

Length 143 m; beam 22 m.

Type: Ship. MMSI: 246430000.

NotesDate/timePositionNaut miles runAvg speedWind from/ knotsBaromVisibWave heightAir tempDewpointWater temp
2014-Apr-14 11:33N 46°27' W 072°16'1312.4
2014-Apr-14 10:33N 46°20' W 072°32'1111.2
2014-Apr-14 09:33N 46°14' W 072°45'3612.0
2014-Apr-14 06:33N 45°48' W 073°20'1312.7
2014-Apr-14 05:33N 45°37' W 073°30'34 4.9
2014-Apr-13 22:32N 45°13' W 074°04'1010.5
2014-Apr-13 21:33N 45°11' W 074°19'  
2014-Apr-09 13:07N 45°12' W 074°18'610.9
2014-Apr-09 12:33N 45°14' W 074°09'3 3.0
2014-Apr-09 11:33N 45°13' W 074°05'0 0.0
2014-Apr-09 10:32N 45°13' W 074°05'0 0.0
2014-Apr-09 09:32N 45°13' W 074°05'0 0.0
2014-Apr-09 08:32N 45°13' W 074°05'0 0.0
2014-Apr-09 07:25N 45°13' W 074°05'0 0.0
2014-Apr-09 06:28N 45°13' W 074°05'0 0.0
2014-Apr-09 05:33N 45°13' W 074°05'0 0.0
2014-Apr-09 04:30N 45°13' W 074°05'0 0.0
2014-Apr-09 03:32N 45°13' W 074°05'0 0.0
2014-Apr-09 02:32N 45°13' W 074°05'0 0.0
2014-Apr-09 01:32N 45°13' W 074°05'0 0.0
2014-Apr-09 00:32N 45°13' W 074°05'0 0.0
2014-Apr-08 23:31N 45°13' W 074°05'0 0.0
2014-Apr-08 22:33N 45°13' W 074°05'0 0.0
2014-Apr-08 21:33N 45°13' W 074°05'0 0.0
2014-Apr-08 20:32N 45°13' W 074°05'0 0.0
2014-Apr-08 19:32N 45°13' W 074°05'0 0.0
2014-Apr-08 18:31N 45°13' W 074°05'0 0.0
2014-Apr-08 17:31N 45°13' W 074°05'0 0.0
2014-Apr-08 16:31N 45°13' W 074°05'0 0.0
2014-Apr-08 15:33N 45°13' W 074°05'0 0.0
2014-Apr-08 14:33N 45°13' W 074°05'0 0.0
2014-Apr-08 13:32N 45°13' W 074°05'0 0.0
2014-Apr-08 12:32N 45°13' W 074°05'0 0.0
2014-Apr-08 11:28N 45°13' W 074°05'0 0.0
2014-Apr-08 10:31N 45°13' W 074°05'0 0.0
2014-Apr-08 09:31N 45°13' W 074°05'0 0.0
2014-Apr-08 08:33N 45°13' W 074°05'0 0.0
2014-Apr-08 07:30N 45°13' W 074°05'0 0.0
2014-Apr-08 06:32N 45°13' W 074°05'0 0.0
2014-Apr-08 05:29N 45°13' W 074°05'0 0.0
2014-Apr-08 04:31N 45°13' W 074°05'0 0.0
2014-Apr-08 03:31N 45°13' W 074°05'0 0.0
2014-Apr-08 02:21N 45°13' W 074°05'0 0.0
2014-Apr-08 01:33N 45°13' W 074°05'0 0.0
2014-Apr-08 00:33N 45°13' W 074°05'0 0.0
2014-Apr-07 23:32N 45°13' W 074°05'0 0.0
2014-Apr-07 22:32N 45°13' W 074°05'0 0.0
2014-Apr-07 21:31N 45°13' W 074°05'0 0.0
2014-Apr-07 20:31N 45°13' W 074°05'0 0.0
2014-Apr-07 19:31N 45°13' W 074°05'0 0.0
2014-Apr-07 17:30N 45°13' W 074°05'0 0.0
2014-Apr-07 16:32N 45°13' W 074°05'0 0.0
2014-Apr-07 15:32N 45°13' W 074°05'0 0.0
2014-Apr-07 14:31N 45°13' W 074°05'0 0.0
2014-Apr-07 13:31N 45°13' W 074°05'0 0.0
2014-Apr-07 12:34N 45°13' W 074°05'0 0.0
2014-Apr-07 11:33N 45°13' W 074°05'0 0.0
2014-Apr-07 10:30N 45°13' W 074°05'0 0.0
2014-Apr-07 09:32N 45°13' W 074°05'0 0.0
2014-Apr-07 08:32N 45°13' W 074°05'0 0.0
2014-Apr-07 07:33N 45°13' W 074°05'5 5.4
2014-Apr-07 06:33N 45°15' W 073°58'4 3.4
2014-Apr-07 05:31N 45°18' W 073°56'1 0.7
2014-Apr-07 04:31N 45°19' W 073°55'0 0.0
2014-Apr-07 03:33N 45°19' W 073°55'0 0.0
2014-Apr-07 02:30N 45°19' W 073°55'0 0.0
2014-Apr-07 01:32N 45°19' W 073°55'0 0.0
2014-Apr-07 00:32N 45°19' W 073°55'0 0.0
2014-Apr-06 23:31N 45°19' W 073°55'0 0.0
2014-Apr-06 22:31N 45°19' W 073°55'0 0.0
2014-Apr-06 21:31N 45°19' W 073°55'0 0.0
2014-Apr-06 20:33N 45°19' W 073°55'0 0.0
2014-Apr-06 19:33N 45°19' W 073°55'0 0.0
2014-Apr-06 18:32N 45°19' W 073°55'0 0.0
2014-Apr-06 17:29N 45°19' W 073°55'0 0.0
2014-Apr-06 16:31N 45°19' W 073°55'1 0.7
2014-Apr-06 15:34N 45°20' W 073°55'6 6.3
2014-Apr-06 14:33N 45°24' W 073°48'8 8.0
2014-Apr-06 13:33N 45°24' W 073°36'2 2.0
2014-Apr-06 12:33N 45°24' W 073°33'5 4.6
2014-Apr-06 11:33N 45°29' W 073°31'1 1.4
2014-Apr-06 10:33N 45°30' W 073°31'5 4.6
2014-Apr-06 09:33N 45°35' W 073°30'4 3.8
2014-Apr-06 08:26N 45°39' W 073°29'0 0.0
2014-Apr-06 07:32N 45°39' W 073°29'0 0.0
2014-Apr-06 06:28N 45°39' W 073°29'0 0.0
2014-Apr-06 05:31N 45°39' W 073°29'0 0.0
2014-Apr-06 04:33N 45°39' W 073°29'0 0.0
2014-Apr-06 03:33N 45°39' W 073°29'0 0.0
2014-Apr-06 02:33N 45°39' W 073°29'0 0.0
2014-Apr-05 17:26N 45°39' W 073°29'0 0.0
2014-Apr-05 16:31N 45°39' W 073°29'1 0.6
2014-Apr-05 15:33N 45°39' W 073°28'5 5.1
2014-Apr-05 14:33N 45°44' W 073°25'9 9.4
2014-Apr-05 13:33N 45°51' W 073°16'  

Dump ship's entire track history

sailing weather and tide predictions

Nassauborg — PHDU — position and weather